createdAt,value
2018-11-25T00:00:05.842Z,14.40
2018-11-25T00:02:34.257Z,12.87
2018-11-25T00:05:03.540Z,13.30
2018-11-25T00:07:34.818Z,12.73
2018-11-25T00:10:00.758Z,13.40
2018-11-25T00:12:29.114Z,13.77
2018-11-25T00:14:57.931Z,12.27
2018-11-25T00:17:26.952Z,11.83
2018-11-25T00:19:55.944Z,12.47
2018-11-25T00:22:25.078Z,13.33
2018-11-25T00:24:53.456Z,11.87
2018-11-25T00:27:21.917Z,12.20
2018-11-25T00:29:50.277Z,12.53
2018-11-25T00:32:18.752Z,16.40
2018-11-25T00:34:47.131Z,14.53
2018-11-25T00:37:15.502Z,14.77
2018-11-25T00:39:43.876Z,14.00
2018-11-25T00:42:12.337Z,17.53
2018-11-25T00:44:40.854Z,17.97
2018-11-25T00:47:09.351Z,17.67
2018-11-25T00:49:37.738Z,15.53
2018-11-25T00:52:06.204Z,16.07
2018-11-25T00:54:34.634Z,14.33
2018-11-25T00:57:03.043Z,15.53
2018-11-25T00:59:31.386Z,14.87
2018-11-25T01:01:59.805Z,15.10
2018-11-25T01:04:28.213Z,15.43
2018-11-25T01:06:56.679Z,15.90
2018-11-25T01:09:25.073Z,15.47
2018-11-25T01:11:53.512Z,14.80
2018-11-25T01:14:21.925Z,14.53
2018-11-25T01:16:50.310Z,14.13
2018-11-25T01:19:18.828Z,14.73
2018-11-25T01:21:47.301Z,16.07
2018-11-25T01:24:15.716Z,14.43
2018-11-25T01:26:44.127Z,15.20
2018-11-25T01:29:12.537Z,14.03
2018-11-25T01:31:40.888Z,13.60
2018-11-25T01:34:09.301Z,12.90
2018-11-25T01:36:37.695Z,12.57
2018-11-25T01:39:07.029Z,13.10
2018-11-25T01:41:35.533Z,13.67
2018-11-25T01:44:04.143Z,13.67
2018-11-25T01:46:32.613Z,12.43
2018-11-25T01:49:01.030Z,14.27
2018-11-25T01:51:29.451Z,13.93
2018-11-25T01:53:57.827Z,12.93
2018-11-25T01:56:26.330Z,12.33
2018-11-25T01:58:54.761Z,13.63
2018-11-25T02:01:23.240Z,12.53
2018-11-25T02:03:51.638Z,12.10
2018-11-25T02:06:20.052Z,13.60
2018-11-25T02:08:48.503Z,13.53
2018-11-25T02:11:16.910Z,13.33
2018-11-25T02:13:45.351Z,12.87
2018-11-25T02:16:13.786Z,13.40
2018-11-25T02:18:42.244Z,12.73
2018-11-25T02:21:10.654Z,12.77
2018-11-25T02:23:39.058Z,12.03
2018-11-25T02:26:07.414Z,13.33
2018-11-25T02:28:35.988Z,13.80
2018-11-25T02:31:04.468Z,12.43
2018-11-25T02:33:32.815Z,13.30
2018-11-25T02:36:01.229Z,12.20
2018-11-25T02:38:29.641Z,12.20
2018-11-25T02:40:58.077Z,12.17
2018-11-25T02:43:26.486Z,12.97
2018-11-25T02:45:54.917Z,13.40
2018-11-25T02:48:23.309Z,11.97
2018-11-25T02:50:51.716Z,13.07
2018-11-25T02:53:20.168Z,16.40
2018-11-25T02:55:48.522Z,15.07
2018-11-25T02:58:16.879Z,13.33
2018-11-25T03:00:45.217Z,20.67
2018-11-25T03:03:13.656Z,16.80
2018-11-25T03:05:42.071Z,17.67
2018-11-25T03:08:10.496Z,16.60
2018-11-25T03:10:38.996Z,29.80
2018-11-25T03:13:07.361Z,29.33
2018-11-25T03:15:35.762Z,39.73
2018-11-25T03:18:04.173Z,66.60
2018-11-25T03:20:32.532Z,39.13
2018-11-25T03:23:00.997Z,32.47
2018-11-25T03:25:29.384Z,38.80
2018-11-25T03:27:57.853Z,29.50
2018-11-25T03:30:26.301Z,42.27
2018-11-25T03:32:54.724Z,37.50
2018-11-25T03:35:23.236Z,27.13
2018-11-25T03:37:51.703Z,20.60
2018-11-25T03:40:20.181Z,27.27
2018-11-25T03:42:48.569Z,44.03
2018-11-25T03:45:20.964Z,35.97
2018-11-25T03:47:49.455Z,49.53
2018-11-25T03:50:18.950Z,47.50
2018-11-25T03:52:47.341Z,27.27
2018-11-25T03:55:17.084Z,41.67
2018-11-25T03:57:45.556Z,72.87
2018-11-25T04:00:20.838Z,42.17
2018-11-25T04:02:50.259Z,82.43
2018-11-25T04:05:18.770Z,65.50
2018-11-25T04:07:47.227Z,52.67
2018-11-25T04:10:16.701Z,61.93
2018-11-25T04:12:45.280Z,47.20
2018-11-25T04:15:15.588Z,67.03
2018-11-25T04:17:43.956Z,74.60
2018-11-25T04:20:15.397Z,57.20
2018-11-25T04:22:44.433Z,80.70
2018-11-25T04:25:13.319Z,41.43
2018-11-25T04:27:41.802Z,38.40
2018-11-25T04:30:18.770Z,50.17
2018-11-25T04:32:48.273Z,63.03
2018-11-25T04:35:16.749Z,85.37
2018-11-25T04:37:45.160Z,56.40
2018-11-25T04:40:14.935Z,90.97
2018-11-25T04:42:43.336Z,34.33
2018-11-25T04:45:13.697Z,65.60
2018-11-25T04:47:42.131Z,69.97
2018-11-25T04:50:20.865Z,50.67
2018-11-25T04:52:49.326Z,74.10
2018-11-25T04:55:17.771Z,41.47
2018-11-25T04:57:50.944Z,32.63
2018-11-25T05:00:19.565Z,26.27
2018-11-25T05:02:48.357Z,29.93
2018-11-25T05:05:17.101Z,34.17
2018-11-25T05:07:45.520Z,24.67
2018-11-25T05:10:17.960Z,22.87
2018-11-25T05:12:46.463Z,23.97
2018-11-25T05:15:18.015Z,24.50
2018-11-25T05:17:46.568Z,20.80
2018-11-25T05:20:15.592Z,22.27
2018-11-25T05:22:43.981Z,21.07
2018-11-25T05:25:13.581Z,21.10
2018-11-25T05:27:41.915Z,22.20
2018-11-25T05:30:11.687Z,20.97
2018-11-25T05:32:43.006Z,20.10
2018-11-25T05:35:12.606Z,21.50
2018-11-25T05:37:41.056Z,21.47
2018-11-25T05:40:13.377Z,20.67
2018-11-25T05:42:41.832Z,24.70
2018-11-25T05:45:13.233Z,25.70
2018-11-25T05:47:41.679Z,21.10
2018-11-25T05:50:18.388Z,28.30
2018-11-25T05:52:46.826Z,19.30
2018-11-25T05:55:15.265Z,21.27
2018-11-25T05:57:43.680Z,25.70
2018-11-25T06:00:16.354Z,19.87
2018-11-25T06:02:44.764Z,18.47
2018-11-25T06:05:13.268Z,19.53
2018-11-25T06:07:41.715Z,23.10
2018-11-25T06:10:11.533Z,27.50
2018-11-25T06:12:40.089Z,24.93
2018-11-25T06:15:10.000Z,29.03
2018-11-25T06:17:38.529Z,19.80
2018-11-25T06:20:13.407Z,36.90
2018-11-25T06:22:42.064Z,33.03
2018-11-25T06:25:14.504Z,39.37
2018-11-25T06:27:42.876Z,42.23
2018-11-25T06:30:13.470Z,30.20
2018-11-25T06:32:41.834Z,31.73
2018-11-25T06:35:11.484Z,20.50
2018-11-25T06:37:39.984Z,30.07
2018-11-25T06:40:10.292Z,27.80
2018-11-25T06:42:38.680Z,30.70
2018-11-25T06:45:15.124Z,27.40
2018-11-25T06:47:43.553Z,28.10
2018-11-25T06:50:12.581Z,25.47
2018-11-25T06:52:40.947Z,21.97
2018-11-25T06:55:10.536Z,28.53
2018-11-25T06:57:38.885Z,28.87
2018-11-25T07:00:16.332Z,30.67
2018-11-25T07:02:44.701Z,31.10
2018-11-25T07:05:17.585Z,40.77
2018-11-25T07:07:46.010Z,25.20
2018-11-25T07:10:18.304Z,34.43
2018-11-25T07:12:47.306Z,30.07
2018-11-25T07:15:16.714Z,45.07
2018-11-25T07:17:45.162Z,30.43
2018-11-25T07:20:16.457Z,29.03
2018-11-25T07:22:44.904Z,45.30
2018-11-25T07:25:22.227Z,31.60
2018-11-25T07:27:50.638Z,39.93
2018-11-25T07:30:24.080Z,60.00
2018-11-25T07:32:52.501Z,46.73
2018-11-25T07:35:21.322Z,29.83
2018-11-25T07:37:49.769Z,35.40
2018-11-25T07:40:19.306Z,32.63
2018-11-25T07:42:49.162Z,42.37
2018-11-25T07:45:19.674Z,32.13
2018-11-25T07:47:48.100Z,30.93
2018-11-25T07:50:16.484Z,32.70
2018-11-25T07:52:45.636Z,36.03
2018-11-25T07:55:17.191Z,36.40
2018-11-25T07:57:45.862Z,33.60
2018-11-25T08:00:15.403Z,39.43
2018-11-25T08:02:43.953Z,30.73
2018-11-25T08:05:15.008Z,63.67
2018-11-25T08:07:43.511Z,45.50
2018-11-25T08:10:12.986Z,34.03
2018-11-25T08:12:41.348Z,55.43
2018-11-25T08:15:14.913Z,53.10
2018-11-25T08:17:43.529Z,38.80
2018-11-25T08:20:13.002Z,47.03
2018-11-25T08:22:41.476Z,49.27
2018-11-25T08:25:11.935Z,35.67
2018-11-25T08:27:40.315Z,36.50
2018-11-25T08:30:15.947Z,40.47
2018-11-25T08:32:44.379Z,43.03
2018-11-25T08:35:13.625Z,32.80
2018-11-25T08:37:42.047Z,47.17
2018-11-25T08:40:12.009Z,39.60
2018-11-25T08:42:40.457Z,34.10
2018-11-25T08:45:10.146Z,37.90
2018-11-25T08:47:38.575Z,23.30
2018-11-25T08:50:10.498Z,40.33
2018-11-25T08:52:39.339Z,33.23
2018-11-25T08:55:11.456Z,41.70
2018-11-25T08:57:39.814Z,47.13
2018-11-25T09:00:18.858Z,36.67
2018-11-25T09:02:47.864Z,31.43
2018-11-25T09:05:16.449Z,36.33
2018-11-25T09:07:44.879Z,23.00
2018-11-25T09:10:15.404Z,31.63
2018-11-25T09:12:44.541Z,36.87
2018-11-25T09:15:16.019Z,42.33
2018-11-25T09:17:44.562Z,24.73
2018-11-25T09:20:15.929Z,27.73
2018-11-25T09:22:44.471Z,32.23
2018-11-25T09:25:14.261Z,36.67
2018-11-25T09:27:42.762Z,39.10
2018-11-25T09:30:14.111Z,23.80
2018-11-25T09:32:42.602Z,26.50
2018-11-25T09:35:11.035Z,37.07
2018-11-25T09:37:39.547Z,77.23
2018-11-25T09:40:11.511Z,22.70
2018-11-25T09:42:40.056Z,22.37
2018-11-25T09:45:13.280Z,24.93
2018-11-25T09:47:42.060Z,28.37
2018-11-25T09:50:13.793Z,28.10
2018-11-25T09:52:42.286Z,36.60
2018-11-25T09:55:14.401Z,27.93
2018-11-25T09:57:45.125Z,45.60
2018-11-25T10:00:19.955Z,34.87
2018-11-25T10:02:48.442Z,30.80
2018-11-25T10:05:17.110Z,35.40
2018-11-25T10:07:45.634Z,25.20
2018-11-25T10:10:16.155Z,20.90
2018-11-25T10:12:44.589Z,22.70
2018-11-25T10:15:16.172Z,32.17
2018-11-25T10:17:44.708Z,16.67
2018-11-25T10:20:16.467Z,25.23
2018-11-25T10:22:44.936Z,21.67
2018-11-25T10:25:14.260Z,31.77
2018-11-25T10:27:42.751Z,18.13
2018-11-25T10:30:14.484Z,21.03
2018-11-25T10:32:43.093Z,19.40
2018-11-25T10:35:11.623Z,17.40
2018-11-25T10:37:40.117Z,18.53
2018-11-25T10:40:14.601Z,22.30
2018-11-25T10:42:42.972Z,19.20
2018-11-25T10:45:15.484Z,18.67
2018-11-25T10:47:43.952Z,17.60
2018-11-25T10:50:15.157Z,18.23
2018-11-25T10:52:43.567Z,15.93
2018-11-25T10:55:12.884Z,15.77
2018-11-25T10:57:41.959Z,23.20
2018-11-25T11:01:00.985Z,18.13
2018-11-25T11:03:34.689Z,17.77
2018-11-25T11:06:08.361Z,13.37
2018-11-25T11:08:36.731Z,12.40
2018-11-25T11:11:05.813Z,12.13
2018-11-25T11:13:34.291Z,12.97
2018-11-25T11:16:02.653Z,13.73
2018-11-25T11:18:31.029Z,11.93
2018-11-25T11:20:59.508Z,13.10
2018-11-25T11:23:28.032Z,14.27
2018-11-25T11:25:56.413Z,14.43
2018-11-25T11:28:24.823Z,15.90
2018-11-25T11:30:53.204Z,21.63
2018-11-25T11:33:22.072Z,23.43
2018-11-25T11:35:50.006Z,17.80
2018-11-25T11:38:18.397Z,17.60
2018-11-25T11:40:46.822Z,17.47
2018-11-25T11:43:15.216Z,22.20
2018-11-25T11:45:43.658Z,18.70
2018-11-25T11:48:12.107Z,21.33
2018-11-25T11:50:40.634Z,25.00
2018-11-25T11:53:09.157Z,20.50
2018-11-25T11:55:37.764Z,23.40
2018-11-25T11:58:06.594Z,22.60
2018-11-25T12:00:35.021Z,22.67
2018-11-25T12:03:03.466Z,24.13
2018-11-25T12:05:32.022Z,32.30
2018-11-25T12:08:00.534Z,25.93
2018-11-25T12:10:28.916Z,27.30
2018-11-25T12:12:57.246Z,30.33
2018-11-25T12:15:30.702Z,26.47
2018-11-25T12:17:56.486Z,25.70
2018-11-25T12:20:25.786Z,38.63
2018-11-25T12:22:55.049Z,35.77
2018-11-25T12:25:23.410Z,35.40
2018-11-25T12:27:51.915Z,37.97
2018-11-25T12:30:20.315Z,30.30
2018-11-25T12:32:50.093Z,32.17
2018-11-25T12:35:18.747Z,33.17
2018-11-25T12:37:47.077Z,36.87
2018-11-25T12:40:17.678Z,33.20
2018-11-25T12:42:47.542Z,29.33
2018-11-25T12:45:17.075Z,37.77
2018-11-25T12:47:45.983Z,41.70
2018-11-25T12:50:16.760Z,34.47
2018-11-25T12:52:45.236Z,38.37
2018-11-25T12:55:15.167Z,36.77
2018-11-25T12:57:43.558Z,39.17
2018-11-25T13:00:38.360Z,42.07
2018-11-25T13:03:08.061Z,36.03
2018-11-25T13:05:36.467Z,34.93
2018-11-25T13:08:04.901Z,37.90
2018-11-25T13:10:33.319Z,40.13
2018-11-25T13:13:01.677Z,38.60
2018-11-25T13:15:31.090Z,34.90
2018-11-25T13:17:59.549Z,34.20
2018-11-25T13:20:27.988Z,29.80
2018-11-25T13:22:56.436Z,36.23
2018-11-25T13:25:24.957Z,34.40
2018-11-25T13:27:56.396Z,30.90
2018-11-25T13:30:26.005Z,32.23
2018-11-25T13:32:55.693Z,34.50
2018-11-25T13:35:24.738Z,32.33
2018-11-25T13:37:53.645Z,33.40
2018-11-25T13:40:22.133Z,30.60
2018-11-25T13:42:50.548Z,30.70
2018-11-25T13:45:19.071Z,28.70
2018-11-25T13:47:48.626Z,26.23
2018-11-25T13:50:17.099Z,29.37
2018-11-25T13:52:45.507Z,29.03
2018-11-25T13:55:19.402Z,26.47
2018-11-25T13:57:47.790Z,34.80
2018-11-25T14:00:49.896Z,28.07
2018-11-25T14:03:20.458Z,30.00
2018-11-25T14:05:52.978Z,29.60
2018-11-25T14:08:17.244Z,31.27
2018-11-25T14:10:45.574Z,30.40
2018-11-25T14:13:13.962Z,30.70
2018-11-25T14:15:42.352Z,28.73
2018-11-25T14:18:10.741Z,28.43
2018-11-25T14:20:39.081Z,32.10
2018-11-25T14:23:07.524Z,35.03
2018-11-25T14:25:35.862Z,31.83
2018-11-25T14:28:07.924Z,31.17
2018-11-25T14:30:36.261Z,32.70
2018-11-25T14:33:04.824Z,32.43
2018-11-25T14:35:33.484Z,32.80
2018-11-25T14:38:01.946Z,35.63
2018-11-25T14:40:30.378Z,33.63
2018-11-25T14:42:58.867Z,36.43
2018-11-25T14:45:27.348Z,32.73
2018-11-25T14:47:55.707Z,31.13
2018-11-25T14:50:24.176Z,35.97
2018-11-25T14:52:53.516Z,42.30
2018-11-25T14:55:21.927Z,35.97
2018-11-25T14:57:50.419Z,41.03
2018-11-25T15:00:20.932Z,42.30
2018-11-25T15:02:52.944Z,33.90
2018-11-25T15:05:25.190Z,32.50
2018-11-25T15:07:53.626Z,27.60
2018-11-25T15:10:22.087Z,26.27
2018-11-25T15:12:50.456Z,28.47
2018-11-25T15:15:19.082Z,26.43
2018-11-25T15:17:47.544Z,26.87
2018-11-25T15:20:16.713Z,24.30
2018-11-25T15:22:47.840Z,28.03
2018-11-25T15:25:22.216Z,26.70
2018-11-25T15:27:50.683Z,32.33
2018-11-25T15:30:19.116Z,27.70
2018-11-25T15:32:47.612Z,27.53
2018-11-25T15:35:16.144Z,29.57
2018-11-25T15:37:46.330Z,29.57
2018-11-25T15:40:17.787Z,31.47
2018-11-25T15:42:46.223Z,28.23
2018-11-25T15:45:14.680Z,31.97
2018-11-25T15:47:44.931Z,29.13
2018-11-25T15:50:15.233Z,32.13
2018-11-25T15:52:43.656Z,31.40
2018-11-25T15:55:14.048Z,30.27
2018-11-25T15:57:42.546Z,33.03
2018-11-25T16:00:20.884Z,30.87
2018-11-25T16:02:49.289Z,29.17
2018-11-25T16:05:23.208Z,33.43
2018-11-25T16:07:51.679Z,35.20
2018-11-25T16:10:20.238Z,32.10
2018-11-25T16:12:51.213Z,39.83
2018-11-25T16:15:22.291Z,41.50
2018-11-25T16:17:50.813Z,38.73
2018-11-25T16:20:20.618Z,43.57
2018-11-25T16:22:51.582Z,35.60
2018-11-25T16:25:37.824Z,34.97
2018-11-25T16:28:12.935Z,30.77
2018-11-25T16:30:41.425Z,33.73
2018-11-25T16:33:09.866Z,30.00
2018-11-25T16:35:38.231Z,30.10
2018-11-25T16:38:07.619Z,29.63
2018-11-25T16:40:36.122Z,26.87
2018-11-25T16:43:04.836Z,21.60
2018-11-25T16:45:33.313Z,22.90
2018-11-25T16:48:01.681Z,23.13
2018-11-25T16:50:30.052Z,23.43
2018-11-25T16:52:58.553Z,25.37
2018-11-25T16:55:26.954Z,23.87
2018-11-25T16:57:55.355Z,22.80
2018-11-25T17:00:23.790Z,23.47
2018-11-25T17:02:52.172Z,27.93
2018-11-25T17:05:24.167Z,25.17
2018-11-25T17:08:02.756Z,30.23
2018-11-25T17:10:31.195Z,26.20
2018-11-25T17:12:59.542Z,27.47
2018-11-25T17:15:28.909Z,28.83
2018-11-25T17:17:57.264Z,25.63
2018-11-25T17:20:25.685Z,28.03
2018-11-25T17:22:54.240Z,31.57
2018-11-25T17:25:22.746Z,27.70
2018-11-25T17:27:51.460Z,31.57
2018-11-25T17:30:20.517Z,29.63
2018-11-25T17:32:49.266Z,29.83
2018-11-25T17:35:22.409Z,30.87
2018-11-25T17:37:50.842Z,29.40
2018-11-25T17:40:19.230Z,30.37
2018-11-25T17:42:48.443Z,29.47
2018-11-25T17:45:16.891Z,32.10
2018-11-25T17:47:45.310Z,33.13
2018-11-25T17:50:16.206Z,34.37
2018-11-25T17:52:45.324Z,27.40
2018-11-25T17:55:14.452Z,25.87
2018-11-25T17:57:43.346Z,26.63
2018-11-25T18:00:18.444Z,27.27
2018-11-25T18:02:46.838Z,31.23
2018-11-25T18:05:15.210Z,30.53
2018-11-25T18:07:43.769Z,27.93
2018-11-25T18:10:13.178Z,28.17
2018-11-25T18:12:42.392Z,27.30
2018-11-25T18:15:19.972Z,26.17
2018-11-25T18:17:53.148Z,27.00
2018-11-25T18:20:21.755Z,27.33
2018-11-25T18:22:50.524Z,33.30
2018-11-25T18:25:18.962Z,26.83
2018-11-25T18:27:47.365Z,26.70
2018-11-25T18:30:17.604Z,26.43
2018-11-25T18:32:46.421Z,23.77
2018-11-25T18:35:14.955Z,30.93
2018-11-25T18:37:43.535Z,20.97
2018-11-25T18:40:13.260Z,23.90
2018-11-25T18:42:42.613Z,23.60
2018-11-25T18:45:15.608Z,26.20
2018-11-25T18:47:45.773Z,24.53
2018-11-25T18:50:15.612Z,21.27
2018-11-25T18:52:45.896Z,25.37
2018-11-25T18:55:13.261Z,22.13
2018-11-25T18:57:43.539Z,22.80
2018-11-25T19:00:21.972Z,27.00
2018-11-25T19:02:50.395Z,25.27
2018-11-25T19:05:18.833Z,22.50
2018-11-25T19:07:47.114Z,22.80
2018-11-25T19:10:17.312Z,23.10
2018-11-25T19:12:46.079Z,23.43
2018-11-25T19:15:18.661Z,20.77
2018-11-25T19:17:47.211Z,21.20
2018-11-25T19:20:19.342Z,22.63
2018-11-25T19:22:47.777Z,22.40
2018-11-25T19:25:17.237Z,19.30
2018-11-25T19:27:46.579Z,18.60
2018-11-25T19:30:15.775Z,24.00
2018-11-25T19:32:46.357Z,24.90
2018-11-25T19:35:15.881Z,23.17
2018-11-25T19:37:44.723Z,20.50
2018-11-25T19:40:17.446Z,22.00
2018-11-25T19:42:45.881Z,20.20
2018-11-25T19:45:26.080Z,20.90
2018-11-25T19:47:55.387Z,16.47
2018-11-25T19:50:40.272Z,22.57
2018-11-25T19:53:09.978Z,18.50
2018-11-25T19:55:38.930Z,21.50
2018-11-25T19:58:07.754Z,19.20
2018-11-25T20:00:36.301Z,16.57
2018-11-25T20:03:04.767Z,17.87
2018-11-25T20:05:33.216Z,18.43
2018-11-25T20:08:02.942Z,16.03
2018-11-25T20:10:30.188Z,18.23
2018-11-25T20:12:59.006Z,17.90
2018-11-25T20:15:27.377Z,17.73
2018-11-25T20:17:56.002Z,18.90
2018-11-25T20:20:26.243Z,18.03
2018-11-25T20:22:55.187Z,18.70
2018-11-25T20:25:23.622Z,18.67
2018-11-25T20:27:53.186Z,19.93
2018-11-25T20:30:29.561Z,19.17
2018-11-25T20:33:03.372Z,17.83
2018-11-25T20:35:33.389Z,20.97
2018-11-25T20:39:07.911Z,20.40
2018-11-25T20:41:36.726Z,19.50
2018-11-25T20:44:05.404Z,24.97
2018-11-25T20:46:39.773Z,22.27
2018-11-25T20:49:08.180Z,24.00
2018-11-25T20:51:41.868Z,24.10
2018-11-25T20:54:10.277Z,21.87
2018-11-25T20:56:38.630Z,22.07
2018-11-25T20:59:07.085Z,26.20
2018-11-25T21:01:35.636Z,27.07
2018-11-25T21:04:04.005Z,23.87
2018-11-25T21:06:32.397Z,24.80
2018-11-25T21:09:00.798Z,25.60
2018-11-25T21:11:29.230Z,25.00
2018-11-25T21:13:57.710Z,24.27
2018-11-25T21:16:26.225Z,28.70
2018-11-25T21:18:54.667Z,23.93
2018-11-25T21:21:23.404Z,24.10
2018-11-25T21:23:51.976Z,26.10
2018-11-25T21:26:20.378Z,24.77
2018-11-25T21:28:48.784Z,25.37
2018-11-25T21:31:17.212Z,27.03
2018-11-25T21:33:45.672Z,26.67
2018-11-25T21:36:14.200Z,29.20
2018-11-25T21:38:42.554Z,25.70
2018-11-25T21:41:10.978Z,21.80
2018-11-25T21:43:39.388Z,23.40
2018-11-25T21:46:07.736Z,24.63
2018-11-25T21:48:36.176Z,23.67
2018-11-25T21:51:04.594Z,24.20
2018-11-25T21:53:32.950Z,25.33
2018-11-25T21:56:01.309Z,23.07
2018-11-25T21:58:29.647Z,24.90
2018-11-25T22:00:57.999Z,26.33
2018-11-25T22:03:26.423Z,21.97
2018-11-25T22:05:54.837Z,23.53
2018-11-25T22:08:23.174Z,23.63
2018-11-25T22:10:51.542Z,23.83
2018-11-25T22:13:19.991Z,22.80
2018-11-25T22:15:48.467Z,24.80
2018-11-25T22:18:16.844Z,25.73
2018-11-25T22:20:45.319Z,23.67
2018-11-25T22:23:13.715Z,27.83
2018-11-25T22:25:42.210Z,24.60
2018-11-25T22:28:10.588Z,27.00
2018-11-25T22:30:38.931Z,22.67
2018-11-25T22:33:07.391Z,27.13
2018-11-25T22:35:35.952Z,29.70
2018-11-25T22:38:04.323Z,25.10
2018-11-25T22:40:32.726Z,24.00
2018-11-25T22:43:01.040Z,25.33
2018-11-25T22:45:29.412Z,21.97
2018-11-25T22:47:57.725Z,24.67
2018-11-25T22:50:27.781Z,22.10
2018-11-25T22:52:54.454Z,26.03
2018-11-25T22:55:24.306Z,25.03
2018-11-25T22:57:52.838Z,24.60
2018-11-25T23:00:23.787Z,24.87
2018-11-25T23:02:52.248Z,27.60
2018-11-25T23:05:31.900Z,26.77
2018-11-25T23:08:00.375Z,22.17
2018-11-25T23:10:28.793Z,27.03
2018-11-25T23:12:57.186Z,24.10
2018-11-25T23:15:25.689Z,25.43
2018-11-25T23:17:54.145Z,25.00
2018-11-25T23:20:22.496Z,25.50
2018-11-25T23:22:50.916Z,28.10
2018-11-25T23:25:19.315Z,23.73
2018-11-25T23:27:47.716Z,26.53
2018-11-25T23:30:16.212Z,24.80
2018-11-25T23:32:44.680Z,27.67
2018-11-25T23:35:18.565Z,28.27
2018-11-25T23:37:46.994Z,22.73
2018-11-25T23:40:15.402Z,25.23
2018-11-25T23:42:43.788Z,25.07
2018-11-25T23:45:13.495Z,25.40
2018-11-25T23:47:41.868Z,28.27
2018-11-25T23:50:11.503Z,23.20
2018-11-25T23:52:40.071Z,23.40
2018-11-25T23:55:09.914Z,19.87
2018-11-25T23:57:38.444Z,24.17
